Time;durP1;ratioP1;P1;durP2;ratioP2;P2;SDS_P1;SDS_P2;PMS_P1;PMS_P2;Temp;Humidity;BMP_temperature;BMP_pressure;BME280_temperature;BME280_humidity;BME280_pressure;Samples;Min_cycle;Max_cycle;Signal;HPM_P1;HPM_P2
2022/01/24 00:00:06;;;;;;;301.77;58.47;;;;;;;-2.06;85.60;100471.84;340075;28;1778;-68
2022/01/24 00:00:17;;;;;;;301.08;58.25;;;;;;;-2.08;85.14;100478.63;339303;28;1545;-68
2022/01/24 00:00:28;;;;;;;302.77;59.22;;;;;;;-2.04;85.48;100472.75;337068;29;862;-67
2022/01/24 00:00:38;;;;;;;304.15;59.05;;;;;;;-2.02;85.39;100471.09;337960;29;2093;-67
2022/01/24 00:00:49;;;;;;;304.67;59.10;;;;;;;-2.02;85.18;100476.22;338055;29;1394;-68
2022/01/24 00:01:02;;;;;;;304.55;59.28;;;;;;;-2.06;84.88;100474.41;338207;29;1282;-68
2022/01/24 00:01:12;;;;;;;303.25;59.53;;;;;;;-2.16;85.46;100480.13;338178;29;956;-67
2022/01/24 00:01:23;;;;;;;303.17;59.10;;;;;;;-2.21;85.91;100472.38;339505;29;1577;-67
2022/01/24 00:01:34;;;;;;;301.43;58.80;;;;;;;-2.29;86.10;100475.56;341886;28;1427;-67
2022/01/24 00:01:46;;;;;;;301.00;58.25;;;;;;;-2.37;85.84;100476.25;340463;28;1685;-67
2022/01/24 00:01:57;;;;;;;301.38;58.70;;;;;;;-2.41;86.19;100481.25;336226;29;1309;-67
2022/01/24 00:02:07;;;;;;;302.63;59.15;;;;;;;-2.40;86.59;100478.72;334780;29;1357;-67
2022/01/24 00:02:18;;;;;;;303.58;60.60;;;;;;;-2.43;86.77;100477.78;338296;29;1498;-67
2022/01/24 00:02:29;;;;;;;303.83;60.57;;;;;;;-2.42;86.30;100480.38;339533;29;1300;-67
2022/01/24 00:02:42;;;;;;;304.48;60.15;;;;;;;-2.42;86.85;100477.81;339448;29;2166;-68
2022/01/24 00:02:52;;;;;;;303.92;59.45;;;;;;;-2.38;86.74;100479.63;340992;28;1585;-67
2022/01/24 00:03:03;;;;;;;303.17;58.90;;;;;;;-2.36;86.94;100479.66;340713;28;1075;-67
2022/01/24 00:03:13;;;;;;;301.42;58.60;;;;;;;-2.33;86.58;100486.56;340883;28;827;-67
2022/01/24 00:03:23;;;;;;;301.17;58.80;;;;;;;-2.36;86.86;100480.53;340746;28;2047;-67
2022/01/24 00:03:34;;;;;;;301.70;59.25;;;;;;;-2.38;86.53;100479.63;339434;29;1367;-67
2022/01/24 00:03:45;;;;;;;301.13;59.07;;;;;;;-2.41;86.75;100471.00;341971;28;1419;-67
2022/01/24 00:03:58;;;;;;;302.20;59.03;;;;;;;-2.44;86.78;100484.59;340943;28;1939;-67
2022/01/24 00:04:09;;;;;;;303.27;59.78;;;;;;;-2.46;86.72;100480.25;340624;28;1630;-67
2022/01/24 00:04:21;;;;;;;302.77;59.47;;;;;;;-2.45;86.95;100477.75;338466;29;1545;-67
2022/01/24 00:04:31;;;;;;;303.24;59.64;;;;;;;-2.48;87.41;100482.78;335581;29;1186;-68
2022/01/24 00:04:41;;;;;;;306.33;59.60;;;;;;;-2.50;87.29;100479.31;338259;29;1584;-67
2022/01/24 00:04:52;;;;;;;307.17;59.90;;;;;;;-2.49;87.46;100485.31;338683;29;2014;-67
2022/01/24 00:05:02;;;;;;;307.23;59.85;;;;;;;-2.49;87.48;100475.94;341806;28;1827;-67
2022/01/24 00:05:13;;;;;;;304.95;59.63;;;;;;;-2.44;87.65;100486.28;340817;28;802;-67
2022/01/24 00:05:23;;;;;;;304.20;59.87;;;;;;;-2.46;87.11;100478.56;340601;28;1518;-67
2022/01/24 00:05:34;;;;;;;303.98;59.65;;;;;;;-2.53;87.69;100489.50;338307;29;1907;-67
2022/01/24 00:05:44;;;;;;;304.23;59.73;;;;;;;-2.53;87.36;100483.50;340772;28;1145;-67
2022/01/24 00:05:55;;;;;;;303.98;59.05;;;;;;;-2.53;87.98;100481.81;341077;28;1666;-67
2022/01/24 00:06:09;;;;;;;302.60;58.50;;;;;;;-2.52;87.57;100487.78;341251;28;1780;-68
2022/01/24 00:06:19;;;;;;;301.40;57.42;;;;;;;-2.52;87.62;100486.09;340759;28;1317;-68
2022/01/24 00:06:31;;;;;;;301.50;57.37;;;;;;;-2.50;88.10;100481.00;338728;29;800;-68
2022/01/24 00:06:42;;;;;;;300.45;58.13;;;;;;;-2.50;87.51;100484.44;339555;28;1747;-68
2022/01/24 00:06:52;;;;;;;302.50;59.47;;;;;;;-2.48;87.78;100485.34;336998;28;1271;-68
2022/01/24 00:07:04;;;;;;;303.53;60.40;;;;;;;-2.47;88.00;100484.53;337500;29;1573;-68
2022/01/24 00:07:18;;;;;;;302.83;59.95;;;;;;;-2.47;87.99;100481.97;337466;28;1135;-68
2022/01/24 00:07:29;;;;;;;301.74;59.42;;;;;;;-2.44;88.01;100482.03;338213;29;913;-68
2022/01/24 00:07:39;;;;;;;303.40;59.37;;;;;;;-2.45;87.99;100477.75;340605;28;1859;-68
2022/01/24 00:07:50;;;;;;;303.80;59.25;;;;;;;-2.42;87.68;100485.50;342990;28;1244;-68
2022/01/24 00:08:00;;;;;;;305.43;59.93;;;;;;;-2.41;87.81;100484.69;341637;28;1172;-68
2022/01/24 00:08:10;;;;;;;304.42;59.95;;;;;;;-2.40;87.70;100486.41;341279;28;1703;-68
2022/01/24 00:08:21;;;;;;;305.77;60.40;;;;;;;-2.37;87.30;100478.81;339344;29;1317;-68
2022/01/24 00:08:32;;;;;;;305.50;60.33;;;;;;;-2.33;87.84;100481.44;339452;28;1728;-68
2022/01/24 00:08:42;;;;;;;304.98;59.67;;;;;;;-2.30;87.88;100487.50;339680;28;1256;-68
2022/01/24 00:08:53;;;;;;;303.97;59.37;;;;;;;-2.25;87.62;100477.38;341770;28;1823;-68
2022/01/24 00:09:04;;;;;;;303.60;59.55;;;;;;;-2.23;87.02;100480.84;340230;28;1962;-68
2022/01/24 00:09:14;;;;;;;303.70;59.53;;;;;;;-2.21;87.36;100476.63;340814;28;1243;-66
2022/01/24 00:09:25;;;;;;;303.90;59.67;;;;;;;-2.18;87.34;100481.81;340876;28;1315;-67
2022/01/24 00:09:37;;;;;;;302.67;59.10;;;;;;;-2.15;86.85;100476.75;340614;28;1289;-67
2022/01/24 00:09:48;;;;;;;301.63;58.67;;;;;;;-2.14;87.29;100483.59;339302;28;1307;-68
2022/01/24 00:10:01;;;;;;;302.60;58.58;;;;;;;-2.10;86.88;100480.28;339400;29;1328;-70
2022/01/24 00:10:17;;;;;;;305.15;59.88;;;;;;;-2.08;86.81;100478.63;336861;29;1664;-68
2022/01/24 00:10:29;;;;;;;304.50;59.97;;;;;;;-2.10;86.87;100481.16;338262;29;1546;-68
2022/01/24 00:10:40;;;;;;;303.62;59.32;;;;;;;-2.13;86.73;100482.78;338210;29;1944;-68
2022/01/24 00:10:52;;;;;;;304.15;59.03;;;;;;;-2.10;86.52;100486.28;339392;29;1538;-68
2022/01/24 00:11:08;;;;;;;304.52;59.50;;;;;;;-2.08;86.44;100481.19;337140;29;1419;-67
2022/01/24 00:11:23;;;;;;;305.52;60.72;;;;;;;-2.05;86.33;100488.97;340619;28;1268;-67
2022/01/24 00:12:22;;;;;;;303.58;60.25;;;;;;;-2.04;86.19;100483.88;341133;28;1418;-67
2022/01/24 00:12:33;;;;;;;300.08;58.83;;;;;;;-1.97;86.11;100486.56;340739;28;1988;-67
2022/01/24 00:13:31;;;;;;;304.53;59.10;;;;;;;-1.94;85.91;100481.53;336558;29;1802;-68
2022/01/24 00:14:29;;;;;;;303.67;59.15;;;;;;;-1.92;85.47;100485.84;337904;29;1335;-68
2022/01/24 00:14:47;;;;;;;301.75;58.78;;;;;;;-1.99;85.26;100488.25;337038;28;1062;-67
2022/01/24 00:15:52;;;;;;;303.23;59.53;;;;;;;-2.02;85.26;100484.78;339109;29;1304;-68
2022/01/24 00:17:12;;;;;;;303.80;59.63;;;;;;;-2.24;85.51;100489.38;340179;28;1373;-68
2022/01/24 00:17:41;;;;;;;302.25;58.42;;;;;;;-2.22;85.63;100488.56;340182;28;1993;-68
2022/01/24 00:18:05;;;;;;;302.96;58.88;;;;;;;-2.16;85.54;100491.25;339607;29;1545;-68
2022/01/24 00:18:28;;;;;;;304.00;59.55;;;;;;;-2.13;85.29;100485.34;340440;28;1085;-68
2022/01/24 00:26:46;;;;;;;303.60;58.67;;;;;;;-2.11;82.91;100499.06;337848;29;1939;-67
2022/01/24 00:26:57;;;;;;;303.92;59.97;;;;;;;-2.06;83.43;100493.22;335813;29;1442;-67
2022/01/24 00:27:07;;;;;;;305.05;61.03;;;;;;;-2.03;83.22;100492.44;336123;29;1120;-67
2022/01/24 00:27:18;;;;;;;304.63;60.33;;;;;;;-1.99;83.24;100499.38;338977;28;1457;-68
2022/01/24 00:27:28;;;;;;;303.73;60.25;;;;;;;-1.98;83.48;100493.41;340663;28;1261;-67
2022/01/24 00:27:38;;;;;;;303.30;59.50;;;;;;;-1.97;82.99;100500.28;339449;29;2022;-67
2022/01/24 00:27:49;;;;;;;304.05;59.03;;;;;;;-1.95;82.68;100493.47;340620;28;1566;-67
2022/01/24 00:27:59;;;;;;;303.30;58.30;;;;;;;-1.94;82.73;100497.78;339451;29;1282;-67
2022/01/24 00:28:10;;;;;;;303.08;58.40;;;;;;;-1.93;82.92;100494.38;339383;29;1933;-67
2022/01/24 00:28:20;;;;;;;302.00;58.78;;;;;;;-1.92;83.03;100495.25;340486;28;2113;-67
2022/01/24 00:28:31;;;;;;;302.97;59.47;;;;;;;-1.90;82.29;100496.16;340452;28;1716;-68
2022/01/24 00:28:41;;;;;;;303.60;59.45;;;;;;;-1.90;82.55;100494.47;340411;28;873;-67
2022/01/24 00:28:52;;;;;;;303.70;59.83;;;;;;;-1.88;82.33;100497.06;339421;28;1171;-67
2022/01/24 00:29:02;;;;;;;303.83;59.63;;;;;;;-1.89;82.07;100495.31;338704;28;1668;-67
2022/01/24 00:29:16;;;;;;;302.57;59.07;;;;;;;-1.86;82.07;100497.97;338275;29;1336;-67
2022/01/24 00:29:27;;;;;;;303.04;58.80;;;;;;;-1.88;81.84;100491.94;340428;28;992;-67
2022/01/24 00:29:37;;;;;;;303.53;59.57;;;;;;;-1.86;81.84;100498.81;341848;28;1190;-67
2022/01/24 00:29:48;;;;;;;303.95;60.17;;;;;;;-1.85;81.87;100498.00;339660;28;1804;-67
2022/01/24 00:29:58;;;;;;;303.97;59.80;;;;;;;-1.84;81.78;100499.72;340586;28;1169;-67
2022/01/24 00:30:09;;;;;;;304.90;59.78;;;;;;;-1.83;81.78;100498.91;340484;28;2136;-67
2022/01/24 00:30:19;;;;;;;306.88;59.92;;;;;;;-1.84;81.38;100494.59;339710;28;2001;-67
2022/01/24 00:30:30;;;;;;;306.63;59.40;;;;;;;-1.83;81.64;100498.91;340645;28;920;-67
2022/01/24 00:30:40;;;;;;;305.88;59.72;;;;;;;-1.82;81.94;100497.19;340299;28;2195;-67
2022/01/24 00:30:51;;;;;;;304.07;59.87;;;;;;;-1.83;81.98;100493.78;337565;28;1950;-67
2022/01/24 00:31:01;;;;;;;303.45;59.95;;;;;;;-1.82;81.81;100500.63;336623;29;1897;-68
2022/01/24 00:31:12;;;;;;;304.40;60.17;;;;;;;-1.81;81.67;100499.81;339680;29;866;-68
2022/01/24 00:31:22;;;;;;;304.20;59.72;;;;;;;-1.81;81.69;100494.69;341599;28;1929;-68
2022/01/24 00:31:32;;;;;;;304.10;59.50;;;;;;;-1.81;81.45;100497.25;339696;28;1467;-67
2022/01/24 00:31:43;;;;;;;303.52;59.80;;;;;;;-1.79;81.69;100498.13;338102;29;952;-67
2022/01/24 00:31:54;;;;;;;305.23;60.87;;;;;;;-1.79;81.34;100500.72;335078;29;1176;-67
2022/01/24 00:32:04;;;;;;;306.27;61.15;;;;;;;-1.79;81.30;100493.00;336400;29;1748;-68
2022/01/24 00:32:15;;;;;;;306.23;60.72;;;;;;;-1.78;81.40;100496.44;338209;28;1442;-67
2022/01/24 00:32:25;;;;;;;305.27;60.35;;;;;;;-1.77;81.19;100496.47;341914;28;1684;-67
2022/01/24 00:32:36;;;;;;;303.97;60.10;;;;;;;-1.76;81.34;100503.34;340845;28;2001;-67
2022/01/24 00:32:46;;;;;;;304.30;59.93;;;;;;;-1.76;80.90;100500.78;340796;28;1457;-68
2022/01/24 00:32:56;;;;;;;304.73;59.67;;;;;;;-1.76;81.05;100497.34;339926;28;979;-68
2022/01/24 00:33:07;;;;;;;305.17;59.78;;;;;;;-1.76;81.13;100503.34;339425;28;1739;-68
2022/01/24 00:33:20;;;;;;;303.70;59.57;;;;;;;-1.75;81.28;100499.09;339412;28;2135;-68
2022/01/24 00:33:30;;;;;;;305.63;60.53;;;;;;;-1.74;80.84;100499.13;340453;28;934;-67
2022/01/24 00:33:41;;;;;;;305.90;60.70;;;;;;;-1.73;81.03;100497.38;339517;28;1271;-67
2022/01/24 00:33:51;;;;;;;307.83;61.07;;;;;;;-1.73;81.41;100503.38;342332;28;1945;-67
2022/01/24 00:34:01;;;;;;;306.08;60.00;;;;;;;-1.72;81.08;100502.56;338046;28;1306;-67
2022/01/24 00:34:12;;;;;;;306.93;60.30;;;;;;;-1.73;81.32;100503.38;339116;29;932;-67
2022/01/24 00:34:23;;;;;;;306.48;59.72;;;;;;;-1.72;81.36;100505.13;340680;28;1294;-67
2022/01/24 00:34:34;;;;;;;306.70;59.45;;;;;;;-1.70;81.25;100502.59;340739;28;1407;-67
2022/01/24 00:34:44;;;;;;;306.80;59.63;;;;;;;-1.71;81.26;100501.72;338796;29;1328;-67
2022/01/24 00:34:54;;;;;;;306.25;59.60;;;;;;;-1.71;80.60;100506.84;338868;28;1294;-67
2022/01/24 00:35:05;;;;;;;307.47;60.20;;;;;;;-1.69;81.08;100501.75;337720;29;2060;-67
2022/01/24 00:35:15;;;;;;;306.48;60.03;;;;;;;-1.69;80.60;100506.88;337513;29;956;-67
2022/01/24 00:35:26;;;;;;;306.83;60.20;;;;;;;-1.72;80.63;100502.56;341956;28;1485;-67
2022/01/24 00:35:36;;;;;;;305.17;59.80;;;;;;;-1.70;80.85;100502.59;341065;28;1565;-67
2022/01/24 00:35:47;;;;;;;305.67;60.17;;;;;;;-1.71;80.74;100501.72;338137;29;1455;-68
2022/01/24 00:35:57;;;;;;;305.88;60.97;;;;;;;-1.70;80.92;100503.44;341796;28;1633;-67
2022/01/24 00:36:08;;;;;;;308.13;61.53;;;;;;;-1.70;81.21;100508.59;339627;28;1391;-68
2022/01/24 00:36:18;;;;;;;307.00;60.70;;;;;;;-1.72;80.71;100499.97;339659;28;1179;-67
2022/01/24 00:36:29;;;;;;;306.10;60.23;;;;;;;-1.69;80.68;100505.19;339382;29;882;-67
2022/01/24 00:36:40;;;;;;;304.87;59.97;;;;;;;-1.69;80.38;100507.75;336658;29;1413;-67
2022/01/24 00:36:51;;;;;;;306.08;60.13;;;;;;;-1.70;80.68;100503.44;336981;29;1938;-67
2022/01/24 00:37:02;;;;;;;307.55;61.03;;;;;;;-1.69;80.72;100510.31;335473;29;1431;-67
2022/01/24 00:37:12;;;;;;;307.23;61.25;;;;;;;-1.69;80.37;100505.19;336265;29;825;-67
2022/01/24 00:37:23;;;;;;;307.80;61.47;;;;;;;-1.73;80.72;100508.50;336502;29;1353;-67
2022/01/24 00:37:34;;;;;;;306.67;60.53;;;;;;;-1.76;80.87;100505.91;338709;28;1918;-67
2022/01/24 00:37:44;;;;;;;306.90;60.40;;;;;;;-1.77;81.10;100504.19;338635;29;956;-67
2022/01/24 00:38:00;;;;;;;306.25;59.90;;;;;;;-1.76;80.79;100508.47;343060;28;1589;-67
2022/01/24 00:38:11;;;;;;;306.08;59.50;;;;;;;-1.74;81.31;100504.25;341904;28;2163;-67
2022/01/24 00:38:21;;;;;;;305.65;60.03;;;;;;;-1.74;80.71;100505.94;339246;29;1582;-67
2022/01/24 00:38:33;;;;;;;307.17;60.80;;;;;;;-1.74;80.60;100501.69;338315;29;1850;-67
2022/01/24 00:38:43;;;;;;;306.77;60.65;;;;;;;-1.73;81.09;100508.50;340805;28;1291;-68
2022/01/24 00:38:54;;;;;;;306.42;60.25;;;;;;;-1.73;81.09;100511.06;340790;28;1352;-67
2022/01/24 00:39:05;;;;;;;307.02;61.17;;;;;;;-1.72;80.66;100505.13;338162;29;1174;-67
2022/01/24 00:39:15;;;;;;;307.90;61.13;;;;;;;-1.71;80.83;100506.84;340662;28;901;-68
2022/01/24 00:39:26;;;;;;;306.90;60.35;;;;;;;-1.70;80.84;100507.72;340300;28;937;-67
2022/01/24 00:39:37;;;;;;;307.77;60.27;;;;;;;-1.71;80.54;100506.84;340797;28;1316;-67
2022/01/24 00:39:47;;;;;;;307.67;60.58;;;;;;;-1.71;80.43;100506.84;340563;28;1550;-67
2022/01/24 00:39:58;;;;;;;307.15;60.40;;;;;;;-1.71;80.78;100504.28;339723;28;837;-68
2022/01/24 00:40:09;;;;;;;305.42;59.85;;;;;;;-1.70;80.82;100505.16;337378;29;1566;-68
2022/01/24 00:40:19;;;;;;;305.07;60.03;;;;;;;-1.71;80.39;100506.84;338870;28;1409;-67
2022/01/24 00:40:36;;;;;;;306.70;60.87;;;;;;;-1.70;80.49;100505.16;339248;29;1266;-67
2022/01/24 00:40:49;;;;;;;306.38;60.63;;;;;;;-1.69;81.45;100510.31;341865;28;1714;-67
2022/01/24 00:40:59;;;;;;;305.95;60.33;;;;;;;-1.69;80.60;100505.19;342290;28;849;-68
2022/01/24 00:41:13;;;;;;;307.23;60.63;;;;;;;-1.69;80.42;100505.19;340593;28;1478;-67
2022/01/24 00:41:24;;;;;;;307.80;60.60;;;;;;;-1.70;80.68;100508.59;339767;28;1443;-67
2022/01/24 00:41:45;;;;;;;307.23;60.30;;;;;;;-1.69;81.02;100515.44;338936;29;1376;-67
2022/01/24 00:42:10;;;;;;;305.48;59.30;;;;;;;-1.70;80.89;100511.16;340025;28;1450;-67
2022/01/24 00:42:49;;;;;;;306.17;60.25;;;;;;;-1.71;80.80;100501.72;338245;28;1321;-67
2022/01/24 00:43:01;;;;;;;305.23;59.58;;;;;;;-1.70;80.71;100506.03;339393;28;1643;-67
2022/01/24 00:43:53;;;;;;;305.90;59.58;;;;;;;-1.69;80.85;100500.06;338074;29;1264;-68
2022/01/24 00:44:36;;;;;;;306.27;60.50;;;;;;;-1.69;80.12;100506.88;338688;28;1771;-68
2022/01/24 00:45:14;;;;;;;309.42;61.90;;;;;;;-1.68;80.15;100509.50;343269;28;1275;-68
2022/01/24 00:46:05;;;;;;;305.60;59.50;;;;;;;-1.74;80.52;100511.06;340038;28;997;-68
2022/01/24 00:46:30;;;;;;;305.77;59.05;;;;;;;-1.71;80.96;100511.13;339367;29;1290;-68
2022/01/24 00:46:49;;;;;;;306.08;59.95;;;;;;;-1.72;80.38;100506.81;341799;28;1471;-68
2022/01/24 00:47:04;;;;;;;306.92;60.75;;;;;;;-1.71;80.65;100519.69;338970;28;1409;-68
2022/01/24 00:47:28;;;;;;;306.02;61.10;;;;;;;-1.72;80.75;100507.69;336175;29;985;-68
2022/01/24 00:48:33;;;;;;;305.47;59.93;;;;;;;-1.70;80.34;100508.59;338664;29;1910;-68
2022/01/24 00:52:57;;;;;;;305.70;59.67;;;;;;;-1.68;80.49;100511.19;341711;28;1315;-68
2022/01/24 00:52:59;;;;;;;305.92;60.38;;;;;;;-1.70;80.67;100507.72;340064;28;1301;-68
2022/01/24 00:54:42;;;;;;;306.98;60.03;;;;;;;-1.62;80.84;100507.91;340869;28;1937;-68
2022/01/24 00:54:47;;;;;;;306.55;60.25;;;;;;;-1.62;80.41;100510.47;341310;28;1884;-68
2022/01/24 00:55:00;;;;;;;307.23;59.80;;;;;;;-1.64;80.58;100512.13;337072;29;878;-67
2022/01/24 00:55:10;;;;;;;304.65;59.15;;;;;;;-1.63;80.32;100508.72;339037;28;1902;-67
2022/01/24 00:55:21;;;;;;;305.27;59.30;;;;;;;-1.63;80.47;100514.72;341518;28;1328;-67
2022/01/24 00:55:31;;;;;;;304.63;59.10;;;;;;;-1.63;80.21;100508.72;340562;28;861;-66
2022/01/24 00:55:42;;;;;;;305.83;59.67;;;;;;;-1.64;80.00;100507.00;341661;28;1883;-66
2022/01/24 00:55:52;;;;;;;305.45;59.80;;;;;;;-1.67;80.61;100511.22;341452;28;1353;-67
2022/01/24 00:56:03;;;;;;;306.10;60.07;;;;;;;-1.65;80.75;100510.38;339187;29;1355;-67
2022/01/24 00:56:13;;;;;;;305.90;60.05;;;;;;;-1.67;80.29;100508.66;338028;29;897;-67
2022/01/24 00:56:23;;;;;;;306.50;60.57;;;;;;;-1.65;80.70;100506.13;338590;28;1288;-67
2022/01/24 00:56:34;;;;;;;307.83;60.80;;;;;;;-1.64;80.27;100509.56;341613;28;1968;-69
2022/01/24 00:56:44;;;;;;;307.47;60.33;;;;;;;-1.64;80.09;100512.13;339557;28;957;-68
2022/01/24 00:56:54;;;;;;;306.63;60.20;;;;;;;-1.63;80.39;100513.84;338367;28;1918;-68
2022/01/24 00:57:05;;;;;;;304.57;59.93;;;;;;;-1.64;80.30;100512.13;339019;28;1296;-67
2022/01/24 00:57:15;;;;;;;305.83;60.30;;;;;;;-1.63;80.40;100506.16;337837;29;838;-66
2022/01/24 00:57:26;;;;;;;306.40;59.93;;;;;;;-1.64;80.21;100513.00;339155;28;1517;-67
2022/01/24 00:57:36;;;;;;;307.73;60.22;;;;;;;-1.64;80.48;100507.00;338014;29;1246;-67
2022/01/24 00:57:46;;;;;;;306.57;60.67;;;;;;;-1.65;80.53;100506.13;340474;28;1315;-68
2022/01/24 00:57:57;;;;;;;307.27;60.70;;;;;;;-1.67;80.70;100507.78;341171;28;1012;-67
2022/01/24 00:58:07;;;;;;;306.13;60.23;;;;;;;-1.66;81.23;100506.97;342018;28;1259;-68
2022/01/24 00:58:18;;;;;;;304.23;59.08;;;;;;;-1.64;80.60;100507.00;340691;28;1230;-67
2022/01/24 00:58:28;;;;;;;303.07;58.73;;;;;;;-1.65;80.50;100511.25;340743;28;1516;-68
2022/01/24 00:58:38;;;;;;;303.07;58.33;;;;;;;-1.65;80.47;100506.13;339223;29;1292;-67
2022/01/24 00:58:49;;;;;;;303.90;58.97;;;;;;;-1.62;80.95;100510.47;337848;29;1292;-68
2022/01/24 00:58:59;;;;;;;304.80;59.50;;;;;;;-1.64;80.85;100510.44;337943;29;897;-67
2022/01/24 00:59:09;;;;;;;305.13;59.83;;;;;;;-1.62;80.50;100507.91;341877;28;1214;-67
2022/01/24 00:59:20;;;;;;;305.97;59.87;;;;;;;-1.67;80.85;100507.78;340496;28;1207;-68
2022/01/24 00:59:30;;;;;;;305.35;59.65;;;;;;;-1.65;80.42;100511.25;339177;29;1033;-68
2022/01/24 00:59:41;;;;;;;305.57;60.03;;;;;;;-1.63;80.77;100516.44;338942;29;1277;-67
2022/01/24 00:59:51;;;;;;;304.33;59.65;;;;;;;-1.64;80.55;100510.44;340411;28;1402;-68
2022/01/24 01:00:02;;;;;;;304.67;59.87;;;;;;;-1.63;80.17;100511.28;340385;28;1363;-68
2022/01/24 01:00:13;;;;;;;304.72;59.46;;;;;;;-1.64;80.35;100512.13;338618;28;1292;-68
2022/01/24 01:00:23;;;;;;;305.00;59.27;;;;;;;-1.65;80.67;100510.38;337346;28;1296;-67
2022/01/24 01:00:34;;;;;;;306.58;59.40;;;;;;;-1.66;80.53;100504.38;336817;29;1312;-67
2022/01/24 01:00:44;;;;;;;307.63;60.05;;;;;;;-1.65;80.62;100515.53;340776;28;1197;-67
2022/01/24 01:00:55;;;;;;;309.37;60.57;;;;;;;-1.66;80.58;100514.66;342016;28;1205;-67
2022/01/24 01:01:05;;;;;;;307.90;60.50;;;;;;;-1.65;80.97;100512.97;338959;28;1232;-67
2022/01/24 01:01:16;;;;;;;306.90;59.97;;;;;;;-1.65;80.64;100516.38;338863;29;1193;-68
2022/01/24 01:01:26;;;;;;;306.67;59.80;;;;;;;-1.65;80.34;100515.53;339212;29;1935;-68
2022/01/24 01:01:37;;;;;;;308.40;59.87;;;;;;;-1.68;80.07;100517.19;341597;28;1819;-68
2022/01/24 01:01:47;;;;;;;307.23;59.60;;;;;;;-1.66;80.12;100519.78;338860;29;1465;-67
2022/01/24 01:01:57;;;;;;;306.17;59.47;;;;;;;-1.67;80.40;100511.22;338463;28;806;-68
2022/01/24 01:02:08;;;;;;;306.08;59.85;;;;;;;-1.68;80.55;100517.19;339710;28;1623;-68
2022/01/24 01:02:19;;;;;;;308.13;60.77;;;;;;;-1.68;80.29;100519.75;339504;28;1372;-67
2022/01/24 01:02:29;;;;;;;309.23;60.80;;;;;;;-1.68;80.62;100517.19;338285;28;1310;-67
2022/01/24 01:02:41;;;;;;;306.75;60.10;;;;;;;-1.67;80.60;100520.63;340290;28;1248;-68
2022/01/24 01:02:52;;;;;;;304.83;59.83;;;;;;;-1.70;80.61;100520.53;340807;28;1715;-68
2022/01/24 01:03:02;;;;;;;304.63;60.13;;;;;;;-1.68;80.68;100519.75;340474;28;1459;-69
2022/01/24 01:03:12;;;;;;;305.80;60.65;;;;;;;-1.66;81.02;100514.66;338820;29;894;-68
2022/01/24 01:03:24;;;;;;;304.77;59.83;;;;;;;-1.68;80.79;100514.63;341433;28;1976;-68
2022/01/24 01:03:34;;;;;;;304.92;59.15;;;;;;;-1.64;81.22;100519.81;339102;28;1435;-68
2022/01/24 01:03:45;;;;;;;304.73;58.97;;;;;;;-1.62;81.30;100515.59;339162;29;1512;-68
2022/01/24 01:03:55;;;;;;;306.20;59.50;;;;;;;-1.67;80.83;100524.06;340666;28;1751;-68
2022/01/24 01:04:06;;;;;;;306.23;59.60;;;;;;;-1.68;80.60;100527.44;337938;29;1521;-68
2022/01/24 01:04:17;;;;;;;306.33;59.75;;;;;;;-1.70;80.72;100523.97;337918;29;925;-68
2022/01/24 01:04:37;;;;;;;307.25;59.75;;;;;;;-1.71;80.68;100524.81;340344;28;977;-68
2022/01/24 01:05:54;;;;;;;305.88;59.90;;;;;;;-1.69;81.00;100525.72;340632;28;1538;-68
2022/01/24 01:06:08;;;;;;;307.45;60.30;;;;;;;-1.68;80.83;100522.31;339063;29;880;-68
2022/01/24 01:06:18;;;;;;;305.05;59.63;;;;;;;-1.68;80.59;100522.31;337730;29;1496;-68
2022/01/24 01:06:29;;;;;;;305.90;60.05;;;;;;;-1.67;80.99;100525.75;336652;29;901;-68
2022/01/24 01:06:42;;;;;;;307.77;60.17;;;;;;;-1.67;80.65;100526.63;336296;29;1243;-68
2022/01/24 01:06:54;;;;;;;306.85;59.58;;;;;;;-1.68;81.34;100522.31;338964;28;1420;-68
2022/01/24 01:07:06;;;;;;;305.35;60.10;;;;;;;-1.68;80.78;100524.88;338653;28;1350;-68
2022/01/24 01:07:26;;;;;;;306.20;60.85;;;;;;;-1.69;80.97;100522.28;340261;28;1625;-68
2022/01/24 01:18:14;;;;;;;307.63;60.17;;;;;;;-1.88;81.82;100544.09;342117;28;1496;-68
2022/01/24 01:18:24;;;;;;;305.50;58.58;;;;;;;-1.91;81.73;100544.03;340329;28;1281;-67
2022/01/24 01:18:34;;;;;;;306.63;59.43;;;;;;;-1.90;81.77;100550.88;340719;28;1361;-68
2022/01/24 01:18:45;;;;;;;306.70;59.30;;;;;;;-1.88;81.82;100546.66;339492;29;1386;-67
2022/01/24 01:18:55;;;;;;;307.17;59.23;;;;;;;-1.88;81.96;100549.22;338020;29;1350;-67
2022/01/24 01:19:06;;;;;;;307.17;59.05;;;;;;;-1.88;81.84;100543.22;339337;28;1586;-67
2022/01/24 01:19:16;;;;;;;308.30;60.07;;;;;;;-1.88;81.87;100549.22;339408;29;865;-67
2022/01/24 01:19:26;;;;;;;308.95;60.70;;;;;;;-1.88;81.60;100549.22;336904;29;1991;-67
2022/01/24 01:19:37;;;;;;;309.10;61.33;;;;;;;-1.89;82.07;100541.50;338038;29;2075;-67
2022/01/24 01:19:47;;;;;;;308.05;60.90;;;;;;;-1.88;81.98;100546.66;339226;29;1928;-68
2022/01/24 01:19:58;;;;;;;307.63;60.73;;;;;;;-1.88;82.16;100545.78;339721;29;1840;-67
2022/01/24 01:20:10;;;;;;;307.88;60.35;;;;;;;-1.88;81.91;100543.22;339272;29;1329;-68
2022/01/24 01:20:25;;;;;;;307.98;60.08;;;;;;;-1.86;81.69;100545.00;339329;29;1514;-67
2022/01/24 01:21:00;;;;;;;307.52;60.25;;;;;;;-1.87;81.94;100535.56;339414;28;2267;-67
2022/01/24 01:21:14;;;;;;;304.88;59.10;;;;;;;-1.86;82.10;100539.00;339798;28;1791;-67
2022/01/24 01:21:25;;;;;;;307.67;59.55;;;;;;;-1.90;81.55;100530.38;338944;29;2021;-67
2022/01/24 01:21:35;;;;;;;307.53;59.63;;;;;;;-1.91;81.83;100538.88;341508;28;2069;-67
2022/01/24 01:21:45;;;;;;;306.17;59.42;;;;;;;-1.93;82.32;100540.56;340115;28;903;-68
2022/01/24 01:21:56;;;;;;;304.83;59.40;;;;;;;-1.93;82.33;100545.69;337211;28;1268;-67
2022/01/24 01:22:06;;;;;;;303.77;59.55;;;;;;;-1.93;82.24;100543.13;335730;29;1434;-68
2022/01/24 01:22:17;;;;;;;304.37;59.93;;;;;;;-1.91;82.10;100538.88;338315;28;1108;-67
2022/01/24 01:22:27;;;;;;;305.05;60.00;;;;;;;-1.91;82.63;100543.16;338978;29;1422;-67
2022/01/24 01:22:38;;;;;;;307.23;60.35;;;;;;;-1.92;82.21;100542.28;338452;29;1203;-67
2022/01/24 01:22:48;;;;;;;308.43;60.93;;;;;;;-1.91;82.22;100545.72;340325;28;2098;-67
2022/01/24 01:22:59;;;;;;;308.08;60.97;;;;;;;-1.91;82.43;100543.16;340824;28;988;-67
2022/01/24 01:23:09;;;;;;;307.17;60.57;;;;;;;-1.91;82.16;100538.88;338759;28;1408;-68
2022/01/24 01:23:20;;;;;;;306.30;60.20;;;;;;;-1.91;82.34;100538.88;338998;28;1129;-68
2022/01/24 01:23:31;;;;;;;305.80;60.47;;;;;;;-1.91;82.21;100544.03;336599;29;822;-68
2022/01/24 01:23:49;;;;;;;306.85;61.17;;;;;;;-1.91;82.12;100541.44;339850;28;1064;-68
2022/01/24 01:24:00;;;;;;;308.45;60.90;;;;;;;-1.91;82.52;100532.88;343375;28;1320;-68
2022/01/24 01:24:11;;;;;;;308.63;60.90;;;;;;;-1.90;82.49;100543.19;340670;28;1321;-68
2022/01/24 01:24:23;;;;;;;310.30;61.30;;;;;;;-1.91;82.21;100544.03;340786;28;1476;-68
2022/01/24 01:24:38;;;;;;;310.35;61.58;;;;;;;-1.89;82.27;100531.22;342009;28;1455;-68
2022/01/24 01:24:52;;;;;;;307.17;60.42;;;;;;;-1.89;82.41;100542.34;339081;29;1828;-67
2022/01/24 01:25:03;;;;;;;306.48;59.90;;;;;;;-1.89;82.21;100537.22;339264;29;1611;-69
2022/01/24 01:25:14;;;;;;;307.35;59.72;;;;;;;-1.88;82.19;100538.97;340576;28;1288;-68
2022/01/24 01:25:25;;;;;;;306.65;59.83;;;;;;;-1.90;82.13;100545.75;340665;28;1797;-68
2022/01/24 01:25:37;;;;;;;306.77;60.37;;;;;;;-1.87;82.06;100535.56;339381;28;1483;-68
2022/01/24 01:25:49;;;;;;;306.52;60.33;;;;;;;-1.86;82.25;100541.56;336734;29;1160;-67
2022/01/24 01:26:04;;;;;;;307.42;60.42;;;;;;;-1.88;82.40;100535.53;339439;29;1476;-67
2022/01/24 01:26:53;;;;;;;306.77;59.90;;;;;;;-1.89;82.45;100541.50;341929;28;959;-66
2022/01/24 01:27:13;;;;;;;306.65;59.90;;;;;;;-1.89;82.49;100547.50;338995;28;1804;-67
2022/01/24 01:27:31;;;;;;;306.30;61.83;;;;;;;-1.90;82.18;100545.75;340048;28;1900;-67
2022/01/24 01:27:45;;;;;;;307.15;62.17;;;;;;;-1.88;82.18;100546.66;340765;28;1282;-68